createdAt,value
2022-07-29T00:01:06.983Z,41.93
2022-07-29T00:04:38.983Z,41.80
2022-07-29T00:07:58.911Z,41.88
2022-07-29T00:11:30.142Z,42.08
2022-07-29T00:14:46.177Z,42.14
2022-07-29T00:18:18.051Z,43.01
2022-07-29T00:21:22.908Z,42.75
2022-07-29T00:24:56.107Z,42.59
2022-07-29T00:28:01.297Z,42.23
2022-07-29T00:31:27.077Z,43.13
2022-07-29T00:34:50.575Z,43.22
2022-07-29T00:38:16.058Z,43.40
2022-07-29T00:41:36.112Z,42.88
2022-07-29T00:45:08.184Z,42.39
2022-07-29T00:48:25.982Z,42.53
2022-07-29T00:51:58.312Z,42.41
2022-07-29T00:55:08.607Z,43.36
2022-07-29T00:58:35.493Z,43.45
2022-07-29T01:01:54.141Z,42.44
2022-07-29T01:05:48.418Z,42.90
2022-07-29T01:08:46.139Z,42.62
2022-07-29T01:12:33.465Z,42.33
2022-07-29T01:15:53.154Z,42.38
2022-07-29T01:19:24.129Z,42.58
2022-07-29T01:22:42.096Z,42.17
2022-07-29T01:26:16.192Z,42.64
2022-07-29T01:29:36.126Z,42.57
2022-07-29T01:33:07.124Z,42.69
2022-07-29T01:36:26.122Z,42.71
2022-07-29T01:39:55.220Z,42.97
2022-07-29T01:43:11.395Z,42.93
2022-07-29T01:46:48.409Z,42.90
2022-07-29T01:50:04.166Z,43.91
2022-07-29T01:53:37.872Z,43.22
2022-07-29T01:56:49.423Z,43.62
2022-07-29T02:00:21.334Z,43.01
2022-07-29T02:03:54.312Z,43.94
2022-07-29T02:07:17.412Z,42.99
2022-07-29T02:10:51.462Z,43.14
2022-07-29T02:14:10.959Z,43.19
2022-07-29T02:17:40.985Z,44.24
2022-07-29T02:21:00.497Z,43.34
2022-07-29T02:24:30.405Z,44.93
2022-07-29T02:27:51.577Z,44.39
2022-07-29T02:31:23.376Z,44.54
2022-07-29T02:34:39.672Z,43.98
2022-07-29T02:38:15.082Z,45.06
2022-07-29T02:41:31.415Z,44.13
2022-07-29T02:45:03.369Z,43.76
2022-07-29T02:48:19.468Z,44.72
2022-07-29T02:51:51.579Z,44.26
2022-07-29T02:55:11.370Z,44.73
2022-07-29T02:58:43.617Z,44.51
2022-07-29T03:01:59.646Z,44.24
2022-07-29T03:05:31.542Z,45.25
2022-07-29T03:08:47.463Z,45.22
2022-07-29T03:12:20.530Z,44.46
2022-07-29T03:15:38.532Z,45.49
2022-07-29T03:19:10.438Z,45.39
2022-07-29T03:22:26.700Z,45.35
2022-07-29T03:25:56.681Z,45.25
2022-07-29T03:29:17.553Z,45.15
2022-07-29T03:32:35.600Z,44.80
2022-07-29T03:35:42.563Z,45.04
2022-07-29T03:39:13.781Z,45.01
2022-07-29T03:42:34.355Z,44.78
2022-07-29T03:46:03.588Z,44.25
2022-07-29T03:49:19.625Z,44.12
2022-07-29T03:52:50.608Z,44.66
2022-07-29T03:56:09.635Z,44.59
2022-07-29T03:59:39.666Z,44.82
2022-07-29T04:02:58.776Z,44.74
2022-07-29T04:06:29.702Z,45.73
2022-07-29T04:09:36.811Z,45.58
2022-07-29T04:12:59.677Z,46.00
2022-07-29T04:16:06.796Z,45.64
2022-07-29T04:19:44.624Z,45.86
2022-07-29T04:23:01.883Z,46.03
2022-07-29T04:26:24.662Z,45.62
2022-07-29T04:29:56.880Z,45.19
2022-07-29T04:33:27.778Z,45.56
2022-07-29T04:36:45.008Z,44.81
2022-07-29T04:40:05.729Z,45.68
2022-07-29T04:43:11.908Z,46.03
2022-07-29T04:46:45.657Z,46.15
2022-07-29T04:50:05.799Z,44.83
2022-07-29T04:53:42.830Z,44.71
2022-07-29T04:57:01.845Z,44.91
2022-07-29T05:00:33.431Z,44.75
2022-07-29T05:03:48.638Z,45.47
2022-07-29T05:07:08.837Z,45.39
2022-07-29T05:10:28.817Z,45.99
2022-07-29T05:13:54.800Z,46.05
2022-07-29T05:17:01.797Z,46.63
2022-07-29T05:20:31.855Z,46.69
2022-07-29T05:23:36.908Z,46.92
2022-07-29T05:27:12.865Z,46.48
2022-07-29T05:30:34.877Z,45.87
2022-07-29T05:34:10.968Z,47.51
2022-07-29T05:37:27.146Z,46.79
2022-07-29T05:40:47.108Z,46.06
2022-07-29T05:44:04.137Z,45.67
2022-07-29T05:47:26.988Z,45.68
2022-07-29T05:53:47.116Z,46.23
2022-07-29T05:57:03.945Z,46.63
2022-07-29T06:00:38.057Z,44.91
2022-07-29T06:03:58.033Z,44.47
2022-07-29T06:07:03.042Z,43.95
2022-07-29T06:10:32.024Z,43.77
2022-07-29T06:13:38.904Z,43.39
2022-07-29T06:17:13.101Z,42.81
2022-07-29T06:20:27.027Z,43.50
2022-07-29T06:23:43.992Z,43.94
2022-07-29T06:26:53.053Z,43.75
2022-07-29T06:30:11.117Z,43.75
2022-07-29T06:33:31.167Z,43.66
2022-07-29T06:37:02.132Z,43.57
2022-07-29T06:40:09.113Z,43.00
2022-07-29T06:43:29.239Z,43.33
2022-07-29T06:46:45.565Z,43.30
2022-07-29T06:53:23.548Z,43.39
2022-07-29T06:56:55.894Z,42.98
2022-07-29T07:00:14.439Z,43.21
2022-07-29T07:03:43.471Z,43.11
2022-07-29T07:06:59.434Z,43.08
2022-07-29T07:10:29.421Z,43.06
2022-07-29T07:13:49.548Z,42.67
2022-07-29T07:17:12.440Z,42.53
2022-07-29T07:20:28.482Z,42.47
2022-07-29T07:23:59.446Z,42.79
2022-07-29T07:27:16.534Z,42.75
2022-07-29T07:30:52.489Z,43.08
2022-07-29T07:33:57.709Z,42.62
2022-07-29T07:37:17.550Z,42.02
2022-07-29T07:40:34.635Z,42.19
2022-07-29T07:44:07.807Z,41.51
2022-07-29T07:47:12.824Z,41.39
2022-07-29T07:50:38.664Z,41.44
2022-07-29T07:54:02.508Z,41.40
2022-07-29T07:57:24.629Z,41.55
2022-07-29T08:00:42.712Z,40.90
2022-07-29T08:04:16.807Z,40.74
2022-07-29T08:07:37.799Z,40.72
2022-07-29T08:11:09.828Z,40.58
2022-07-29T08:14:24.706Z,40.25
2022-07-29T08:17:59.668Z,40.29
2022-07-29T08:21:15.683Z,39.77
2022-07-29T08:25:01.833Z,39.88
2022-07-29T08:28:10.803Z,39.80
2022-07-29T08:31:39.908Z,39.46
2022-07-29T08:34:57.737Z,39.04
2022-07-29T08:38:17.792Z,39.46
2022-07-29T08:41:38.792Z,39.32
2022-07-29T08:45:09.709Z,38.93
2022-07-29T08:48:25.899Z,38.86
2022-07-29T08:52:00.834Z,38.75
2022-07-29T08:55:16.879Z,38.69
2022-07-29T08:58:52.219Z,38.75
2022-07-29T09:02:11.885Z,38.99
2022-07-29T09:05:47.787Z,38.90
2022-07-29T09:09:06.766Z,39.08
2022-07-29T09:12:39.001Z,39.11
2022-07-29T09:15:43.883Z,38.90
2022-07-29T09:19:07.006Z,39.21
2022-07-29T09:22:22.812Z,38.81
2022-07-29T09:25:54.220Z,38.61
2022-07-29T09:29:01.877Z,38.40
2022-07-29T09:32:33.931Z,38.19
2022-07-29T09:35:57.020Z,38.14
2022-07-29T09:42:23.403Z,37.70
2022-07-29T09:45:56.141Z,37.80
2022-07-29T09:49:14.141Z,37.50
2022-07-29T09:52:46.085Z,37.58
2022-07-29T09:56:05.183Z,37.79
2022-07-29T09:59:50.612Z,37.60
2022-07-29T10:02:59.362Z,37.75
2022-07-29T10:06:36.598Z,37.81
2022-07-29T10:10:04.124Z,37.68
2022-07-29T10:13:33.217Z,37.43
2022-07-29T10:16:53.084Z,37.45
2022-07-29T10:20:27.291Z,37.47
2022-07-29T10:23:46.094Z,37.20
2022-07-29T10:27:14.140Z,37.34
2022-07-29T10:30:43.376Z,37.28
2022-07-29T10:34:20.265Z,37.14
2022-07-29T10:37:39.185Z,37.12
2022-07-29T10:41:13.068Z,37.33
2022-07-29T10:44:29.233Z,37.18
2022-07-29T10:47:58.432Z,37.12
2022-07-29T10:51:27.332Z,37.30
2022-07-29T10:55:08.301Z,37.25
2022-07-29T10:58:41.399Z,37.11
2022-07-29T11:02:27.786Z,37.36
2022-07-29T11:08:46.965Z,37.82
2022-07-29T11:11:54.410Z,37.43
2022-07-29T11:15:31.586Z,37.66
2022-07-29T11:18:53.287Z,37.59
2022-07-29T11:22:22.347Z,37.40
2022-07-29T11:25:52.434Z,37.41
2022-07-29T11:29:19.462Z,37.25
2022-07-29T11:32:38.398Z,38.43
2022-07-29T11:36:16.954Z,38.25
2022-07-29T11:39:53.477Z,38.15
2022-07-29T11:43:26.442Z,38.37
2022-07-29T11:46:42.590Z,38.27
2022-07-29T11:50:11.395Z,38.91
2022-07-29T11:53:29.198Z,38.64
2022-07-29T11:57:01.424Z,38.53
2022-07-29T12:00:18.808Z,38.69
2022-07-29T12:03:53.541Z,39.08
2022-07-29T12:07:16.680Z,38.58
2022-07-29T12:10:36.544Z,38.74
2022-07-29T12:13:43.533Z,38.47
2022-07-29T12:20:39.610Z,38.46
2022-07-29T12:24:11.610Z,38.38
2022-07-29T12:27:29.445Z,38.39
2022-07-29T12:31:04.857Z,38.45
2022-07-29T12:34:20.414Z,38.92
2022-07-29T12:37:52.557Z,39.25
2022-07-29T12:41:08.665Z,38.77
2022-07-29T12:44:46.631Z,38.59
2022-07-29T12:48:20.551Z,39.49
2022-07-29T12:51:57.815Z,39.17
2022-07-29T12:55:16.582Z,39.12
2022-07-29T12:59:01.630Z,38.98
2022-07-29T13:02:17.659Z,39.25
2022-07-29T13:05:51.747Z,39.15
2022-07-29T13:09:07.690Z,39.32
2022-07-29T13:12:38.642Z,39.26
2022-07-29T13:15:55.848Z,39.05
2022-07-29T13:19:33.727Z,38.91
2022-07-29T13:22:49.775Z,39.23
2022-07-29T13:26:09.793Z,39.09
2022-07-29T13:29:31.661Z,38.73
2022-07-29T13:33:01.686Z,39.00
2022-07-29T13:39:30.805Z,38.50
2022-07-29T13:43:01.032Z,38.32
2022-07-29T13:46:07.837Z,38.31
2022-07-29T13:52:42.800Z,37.69
2022-07-29T13:56:14.790Z,37.29
2022-07-29T13:59:19.884Z,37.05
2022-07-29T14:02:50.873Z,36.69
2022-07-29T14:06:10.850Z,35.95
2022-07-29T14:09:27.918Z,36.30
2022-07-29T14:13:00.829Z,35.27
2022-07-29T14:16:20.054Z,35.54
2022-07-29T14:19:38.086Z,34.84
2022-07-29T14:22:45.077Z,35.39
2022-07-29T14:29:19.858Z,35.00
2022-07-29T14:32:42.184Z,34.61
2022-07-29T14:35:51.841Z,34.29
2022-07-29T14:39:11.795Z,34.19
2022-07-29T14:42:16.999Z,34.28
2022-07-29T14:45:47.081Z,35.46
2022-07-29T14:48:52.060Z,35.05
2022-07-29T14:52:25.862Z,33.57
2022-07-29T14:55:41.944Z,34.45
2022-07-29T14:59:01.959Z,33.29
2022-07-29T15:02:23.725Z,33.65
2022-07-29T15:05:41.949Z,33.34
2022-07-29T15:08:49.047Z,33.87
2022-07-29T15:12:08.983Z,33.34
2022-07-29T15:15:25.032Z,34.27
2022-07-29T15:19:01.190Z,33.96
2022-07-29T15:22:27.033Z,33.96
2022-07-29T15:25:50.932Z,32.64
2022-07-29T15:29:20.056Z,33.56
2022-07-29T15:32:42.202Z,33.49
2022-07-29T15:35:47.191Z,32.79
2022-07-29T15:39:21.150Z,33.14
2022-07-29T15:42:25.969Z,33.07
2022-07-29T15:46:00.189Z,32.08
2022-07-29T15:49:05.011Z,33.61
2022-07-29T15:52:37.148Z,31.94
2022-07-29T15:55:57.024Z,33.13
2022-07-29T15:59:26.098Z,33.13
2022-07-29T16:02:42.209Z,32.66
2022-07-29T16:06:20.311Z,33.14
2022-07-29T16:09:36.070Z,33.10
2022-07-29T16:13:17.773Z,32.66
2022-07-29T16:16:21.215Z,32.92
2022-07-29T16:19:44.232Z,32.95
2022-07-29T16:22:54.137Z,33.03
2022-07-29T16:26:17.154Z,32.93
2022-07-29T16:29:37.508Z,32.79
2022-07-29T16:33:10.264Z,32.31
2022-07-29T16:36:26.230Z,32.29
2022-07-29T16:39:43.409Z,33.01
2022-07-29T16:43:02.233Z,32.43
2022-07-29T16:46:45.236Z,31.98
2022-07-29T16:49:52.279Z,32.56
2022-07-29T16:53:29.916Z,32.64
2022-07-29T16:56:42.288Z,32.58
2022-07-29T17:00:10.301Z,32.06
2022-07-29T17:03:30.220Z,32.61
2022-07-29T17:07:02.266Z,32.46
2022-07-29T17:10:09.290Z,31.93
2022-07-29T17:13:32.302Z,32.36
2022-07-29T17:16:37.403Z,32.36
2022-07-29T17:20:18.306Z,32.34
2022-07-29T17:23:23.352Z,31.92
2022-07-29T17:26:54.423Z,32.48
2022-07-29T17:30:25.490Z,32.23
2022-07-29T17:33:46.323Z,32.24
2022-07-29T17:37:09.381Z,32.07
2022-07-29T17:40:45.433Z,32.14
2022-07-29T17:43:49.328Z,32.19
2022-07-29T17:47:19.723Z,32.21
2022-07-29T17:50:37.372Z,32.27
2022-07-29T17:54:09.533Z,32.11
2022-07-29T17:57:13.673Z,32.26
2022-07-29T18:00:33.748Z,32.17
2022-07-29T18:03:59.851Z,32.19
2022-07-29T18:07:00.048Z,31.60
2022-07-29T18:10:30.559Z,32.16
2022-07-29T18:13:37.495Z,32.12
2022-07-29T18:16:58.825Z,32.12
2022-07-29T18:20:05.576Z,31.78
2022-07-29T18:23:42.501Z,31.99
2022-07-29T18:27:01.841Z,32.11
2022-07-29T18:30:38.777Z,32.05
2022-07-29T18:33:48.648Z,32.18
2022-07-29T18:37:08.551Z,31.90
2022-07-29T18:43:29.922Z,32.24
2022-07-29T18:46:59.226Z,32.33
2022-07-29T18:50:06.019Z,32.45
2022-07-29T18:53:29.334Z,32.42
2022-07-29T18:56:48.119Z,32.42
2022-07-29T19:00:20.953Z,32.55
2022-07-29T19:03:26.039Z,32.59
2022-07-29T19:07:00.489Z,32.75
2022-07-29T19:10:16.093Z,32.87
2022-07-29T19:13:48.002Z,33.25
2022-07-29T19:17:07.963Z,33.21
2022-07-29T19:20:40.091Z,33.40
2022-07-29T19:24:01.489Z,33.78
2022-07-29T19:27:19.114Z,33.94
2022-07-29T19:30:35.982Z,34.20
2022-07-29T19:34:07.099Z,34.32
2022-07-29T19:37:17.172Z,34.63
2022-07-29T19:40:48.064Z,34.79
2022-07-29T19:44:01.643Z,35.11
2022-07-29T19:47:26.106Z,35.33
2022-07-29T19:50:46.883Z,35.43
2022-07-29T19:54:10.107Z,35.68
2022-07-29T19:57:16.332Z,36.06
2022-07-29T20:00:48.444Z,36.29
2022-07-29T20:04:26.222Z,36.44
2022-07-29T20:07:46.238Z,36.66
2022-07-29T20:11:20.272Z,36.83
2022-07-29T20:14:29.213Z,36.95
2022-07-29T20:17:46.352Z,37.18
2022-07-29T20:21:07.033Z,37.38
2022-07-29T20:24:40.365Z,37.57
2022-07-29T20:27:50.963Z,37.67
2022-07-29T20:31:25.369Z,37.92
2022-07-29T20:34:32.272Z,38.08
2022-07-29T20:37:56.485Z,38.23
2022-07-29T20:41:10.330Z,38.19
2022-07-29T20:44:46.377Z,38.50
2022-07-29T20:48:05.738Z,38.70
2022-07-29T20:51:43.783Z,38.75
2022-07-29T20:54:48.451Z,38.96
2022-07-29T20:58:21.523Z,39.14
2022-07-29T21:01:34.439Z,39.24
2022-07-29T21:05:06.774Z,39.30
2022-07-29T21:08:16.544Z,39.47
2022-07-29T21:11:48.475Z,39.58
2022-07-29T21:15:12.424Z,39.63
2022-07-29T21:18:42.568Z,39.64
2022-07-29T21:21:47.377Z,39.73
2022-07-29T21:25:08.690Z,39.80
2022-07-29T21:28:17.748Z,39.73
2022-07-29T21:31:53.436Z,39.90
2022-07-29T21:34:58.565Z,39.69
2022-07-29T21:38:20.487Z,39.86
2022-07-29T21:41:33.822Z,39.86
2022-07-29T21:44:53.557Z,39.76
2022-07-29T21:51:34.478Z,40.03
2022-07-29T21:54:41.536Z,39.89
2022-07-29T21:58:01.606Z,39.79
2022-07-29T22:01:20.876Z,39.90
2022-07-29T22:04:43.628Z,39.91
2022-07-29T22:08:00.824Z,100.00
